Norseman II — WDD6688 — position and weather

sailwx.info

Track history (hours):
 
Tides and Currents Weather Stations Pressure Air Temp Water Temp Dewpoint Dewpoint Depression Visibility Wind Speed Wind Dir Waves Ship Positions

Norseman II

Owner: Norseman Maritime Charters LLC, York, ME. More information available from US FCC via Universal Licensing System and Coast Guard Vessel Documentation Center.

Last reported at 2014-Dec-22 12:33 UTC. Time now 2014-Dec-22 12:46 UTC.
Position N 33°46' W 118°13'.

Length 30 m; draft 4 m.

Type: Passenger vessel. MMSI: 367176270.

Date/timePositionNaut miles runAvg speedWind from/ knotsBaromVisibWave heightAir tempDewpointWater temp
2014-Dec-22 12:33N 33°46' W 118°13'0 0.0
2014-Dec-22 11:33N 33°46' W 118°13'0 0.0
2014-Dec-22 10:33N 33°46' W 118°13'0 0.0
2014-Dec-22 09:33N 33°46' W 118°13'0 0.0
2014-Dec-22 08:33N 33°46' W 118°13'0 0.0
2014-Dec-22 07:33N 33°46' W 118°13'0 0.0
2014-Dec-22 06:33N 33°46' W 118°13'0 0.0
2014-Dec-22 05:33N 33°46' W 118°13'0 0.0
2014-Dec-22 04:33N 33°46' W 118°13'0 0.0
2014-Dec-22 03:31N 33°46' W 118°13'0 0.0
2014-Dec-22 02:33N 33°46' W 118°13'0 0.0
2014-Dec-22 01:33N 33°46' W 118°13'0 0.0
2014-Dec-22 00:33N 33°46' W 118°13'0 0.0
2014-Dec-21 23:33N 33°46' W 118°13'0 0.0
2014-Dec-21 22:32N 33°46' W 118°13'0 0.0
2014-Dec-21 21:33N 33°46' W 118°13'0 0.0
2014-Dec-21 20:33N 33°46' W 118°13'0 0.0
2014-Dec-21 19:33N 33°46' W 118°13'0 0.0
2014-Dec-21 00:29N 33°46' W 118°13'0 0.0
2014-Dec-20 23:33N 33°46' W 118°13'0 0.0
2014-Dec-20 22:33N 33°46' W 118°13'0 0.0
2014-Dec-20 21:32N 33°46' W 118°13'0 0.0
2014-Dec-20 20:33N 33°46' W 118°13'0 0.0
2014-Dec-20 19:33N 33°46' W 118°13'0 0.0
2014-Dec-20 18:33N 33°46' W 118°13'0 0.0
2014-Dec-20 17:33N 33°46' W 118°13'0 0.0
2014-Dec-20 16:33N 33°46' W 118°13'0 0.0
2014-Dec-20 15:33N 33°46' W 118°13'0 0.0
2014-Dec-20 14:33N 33°46' W 118°13'0 0.0
2014-Dec-20 13:33N 33°46' W 118°13'0 0.0
2014-Dec-20 12:33N 33°46' W 118°13'0 0.0
2014-Dec-20 11:33N 33°46' W 118°13'0 0.0
2014-Dec-20 10:34N 33°46' W 118°13'0 0.0
2014-Dec-20 09:33N 33°46' W 118°13'0 0.0
2014-Dec-20 08:34N 33°46' W 118°13'0 0.0
2014-Dec-20 07:33N 33°46' W 118°13'0 0.0
2014-Dec-20 06:33N 33°46' W 118°13'0 0.0
2014-Dec-20 05:33N 33°46' W 118°13'0 0.0
2014-Dec-20 04:34N 33°46' W 118°13'0 0.0
2014-Dec-20 03:33N 33°46' W 118°13'0 0.0
2014-Dec-20 02:33N 33°46' W 118°13'0 0.0
2014-Dec-20 01:33N 33°46' W 118°13'0 0.0
2014-Dec-20 00:33N 33°46' W 118°13'0 0.0
2014-Dec-19 23:33N 33°46' W 118°13'0 0.0
2014-Dec-19 22:33N 33°46' W 118°13'0 0.0
2014-Dec-19 21:33N 33°46' W 118°13'0 0.0
2014-Dec-19 20:33N 33°46' W 118°13'0 0.0
2014-Dec-19 19:33N 33°46' W 118°13'0 0.0
2014-Dec-19 18:33N 33°46' W 118°13'0 0.0
2014-Dec-19 17:33N 33°46' W 118°13'0 0.0
2014-Dec-19 16:33N 33°46' W 118°13'0 0.0
2014-Dec-19 15:33N 33°46' W 118°13'0 0.0
2014-Dec-19 14:34N 33°46' W 118°13'0 0.0
2014-Dec-19 13:33N 33°46' W 118°13'0 0.0
2014-Dec-19 12:33N 33°46' W 118°13'0 0.0
2014-Dec-19 11:33N 33°46' W 118°13'0 0.0
2014-Dec-19 10:33N 33°46' W 118°13'0 0.0
2014-Dec-19 09:33N 33°46' W 118°13'0 0.0
2014-Dec-19 08:33N 33°46' W 118°13'0 0.0
2014-Dec-19 07:33N 33°46' W 118°13'0 0.0
2014-Dec-19 06:33N 33°46' W 118°13'0 0.0
2014-Dec-19 05:33N 33°46' W 118°13'0 0.0
2014-Dec-19 04:33N 33°46' W 118°13'0 0.0
2014-Dec-19 03:33N 33°46' W 118°13'144 7.9
2014-Dec-18 09:24N 34°48' W 120°51'8 9.2
2014-Dec-18 08:33N 34°54' W 120°56'9 9.1
2014-Dec-18 07:33N 35°03' W 121°01'9 9.1
2014-Dec-18 06:33N 35°11' W 121°05'169 8.9
2014-Dec-17 11:33N 37°36' W 122°54'9 9.0
2014-Dec-17 10:33N 37°45' W 122°57'10 9.6
2014-Dec-17 09:33N 37°53' W 123°03'9 8.8
2014-Dec-17 08:33N 38°01' W 123°07'9 8.9
2014-Dec-17 07:33N 38°09' W 123°13'9 9.4
2014-Dec-17 06:33N 38°17' W 123°19'9 9.2
2014-Dec-17 05:33N 38°25' W 123°25'10 9.7
2014-Dec-17 04:33N 38°33' W 123°31'9 9.3
2014-Dec-17 03:33N 38°41' W 123°36'  
2014-Dec-14 20:26N 45°41' W 124°02'8 8.9
2014-Dec-14 19:33N 45°49' W 124°02'8 8.1
2014-Dec-14 18:33N 45°57' W 124°04'8 8.2
2014-Dec-14 17:33N 46°04' W 124°09'9 8.8
2014-Dec-14 16:33N 46°13' W 124°13'8 8.4
2014-Dec-14 15:33N 46°21' W 124°14'9 8.7
2014-Dec-14 14:33N 46°30' W 124°15'8 8.4
2014-Dec-14 13:33N 46°38' W 124°17'9 8.7
2014-Dec-14 12:33N 46°47' W 124°17'8 8.3
2014-Dec-14 11:33N 46°55' W 124°18'8 7.9
2014-Dec-14 10:33N 47°03' W 124°20'71 8.4
2014-Dec-14 02:10N 48°11' W 124°50'5 8.7
2014-Dec-14 01:32N 48°16' W 124°49'9 9.1
2014-Dec-14 00:33N 48°25' W 124°45'10 9.7
2014-Dec-13 23:33N 48°27' W 124°31'1010.1
2014-Dec-13 22:33N 48°23' W 124°17'1111.2
2014-Dec-13 21:33N 48°19' W 124°02'1110.6
2014-Dec-13 20:33N 48°16' W 123°46'1010.0
2014-Dec-13 19:33N 48°15' W 123°31'10 9.5
2014-Dec-13 18:32N 48°14' W 123°17'9 8.7
2014-Dec-13 17:33N 48°13' W 123°04'8 7.6
2014-Dec-13 16:31N 48°12' W 122°53'13 6.6
2014-Dec-13 14:33N 48°03' W 122°38'8 7.7
2014-Dec-13 13:33N 47°57' W 122°32'9 9.0
2014-Dec-13 12:33N 47°49' W 122°27'9 7.8
2014-Dec-13 11:26N 47°40' W 122°24'0 0.3
2014-Dec-13 10:33N 47°40' W 122°23'0 0.0
2014-Dec-13 09:33N 47°40' W 122°23'0 0.0
2014-Dec-13 08:33N 47°40' W 122°23'0 0.0
2014-Dec-13 07:33N 47°40' W 122°23'0 0.0
2014-Dec-13 06:33N 47°40' W 122°23'0 0.0
2014-Dec-13 05:33N 47°40' W 122°23'0 0.0
2014-Dec-13 04:33N 47°40' W 122°23'0 0.0
2014-Dec-13 03:33N 47°40' W 122°23'0 0.0
2014-Dec-13 02:33N 47°40' W 122°23'0 0.0
2014-Dec-13 01:33N 47°40' W 122°23'0 0.0
2014-Dec-13 00:33N 47°40' W 122°23'0 0.0
2014-Dec-12 23:33N 47°40' W 122°23'0 0.0
2014-Dec-12 22:33N 47°40' W 122°23'0 0.0
2014-Dec-12 21:33N 47°40' W 122°23'0 0.0
2014-Dec-12 20:34N 47°40' W 122°23'0 0.0
2014-Dec-12 19:33N 47°40' W 122°23'0 0.0
2014-Dec-12 18:33N 47°40' W 122°23'1 0.6
2014-Dec-12 17:33N 47°40' W 122°23'0 0.0
2014-Dec-12 16:33N 47°40' W 122°23'0 0.0
2014-Dec-12 15:33N 47°40' W 122°23'0 0.0
2014-Dec-12 14:33N 47°40' W 122°23'0 0.0
2014-Dec-12 13:33N 47°40' W 122°23'0 0.0
2014-Dec-12 12:33N 47°40' W 122°23'  
Track history (hours):
 
Tides and Currents Weather Stations Pressure Air Temp Water Temp Dewpoint Dewpoint Depression Visibility Wind Speed Wind Dir Waves Ship Positions

Norseman II

Owner: Norseman Maritime Charters LLC, York, ME. More information available from US FCC via Universal Licensing System and Coast Guard Vessel Documentation Center.

Last reported at 2014-Dec-22 12:33 UTC. Time now 2014-Dec-22 12:46 UTC.
Position N 33°46' W 118°13'.

Length 30 m; draft 4 m.

Type: Passenger vessel. MMSI: 367176270.

Date/timePositionNaut miles runAvg speedWind from/ knotsBaromVisibWave heightAir tempDewpointWater temp
2014-Dec-22 12:33N 33°46' W 118°13'0 0.0
2014-Dec-22 11:33N 33°46' W 118°13'0 0.0
2014-Dec-22 10:33N 33°46' W 118°13'0 0.0
2014-Dec-22 09:33N 33°46' W 118°13'0 0.0
2014-Dec-22 08:33N 33°46' W 118°13'0 0.0
2014-Dec-22 07:33N 33°46' W 118°13'0 0.0
2014-Dec-22 06:33N 33°46' W 118°13'0 0.0
2014-Dec-22 05:33N 33°46' W 118°13'0 0.0
2014-Dec-22 04:33N 33°46' W 118°13'0 0.0
2014-Dec-22 03:31N 33°46' W 118°13'0 0.0
2014-Dec-22 02:33N 33°46' W 118°13'0 0.0
2014-Dec-22 01:33N 33°46' W 118°13'0 0.0
2014-Dec-22 00:33N 33°46' W 118°13'0 0.0
2014-Dec-21 23:33N 33°46' W 118°13'0 0.0
2014-Dec-21 22:32N 33°46' W 118°13'0 0.0
2014-Dec-21 21:33N 33°46' W 118°13'0 0.0
2014-Dec-21 20:33N 33°46' W 118°13'0 0.0
2014-Dec-21 19:33N 33°46' W 118°13'0 0.0
2014-Dec-21 00:29N 33°46' W 118°13'0 0.0
2014-Dec-20 23:33N 33°46' W 118°13'0 0.0
2014-Dec-20 22:33N 33°46' W 118°13'0 0.0
2014-Dec-20 21:32N 33°46' W 118°13'0 0.0
2014-Dec-20 20:33N 33°46' W 118°13'0 0.0
2014-Dec-20 19:33N 33°46' W 118°13'0 0.0
2014-Dec-20 18:33N 33°46' W 118°13'0 0.0
2014-Dec-20 17:33N 33°46' W 118°13'0 0.0
2014-Dec-20 16:33N 33°46' W 118°13'0 0.0
2014-Dec-20 15:33N 33°46' W 118°13'0 0.0
2014-Dec-20 14:33N 33°46' W 118°13'0 0.0
2014-Dec-20 13:33N 33°46' W 118°13'0 0.0
2014-Dec-20 12:33N 33°46' W 118°13'0 0.0
2014-Dec-20 11:33N 33°46' W 118°13'0 0.0
2014-Dec-20 10:34N 33°46' W 118°13'0 0.0
2014-Dec-20 09:33N 33°46' W 118°13'0 0.0
2014-Dec-20 08:34N 33°46' W 118°13'0 0.0
2014-Dec-20 07:33N 33°46' W 118°13'0 0.0
2014-Dec-20 06:33N 33°46' W 118°13'0 0.0
2014-Dec-20 05:33N 33°46' W 118°13'0 0.0
2014-Dec-20 04:34N 33°46' W 118°13'0 0.0
2014-Dec-20 03:33N 33°46' W 118°13'0 0.0
2014-Dec-20 02:33N 33°46' W 118°13'0 0.0
2014-Dec-20 01:33N 33°46' W 118°13'0 0.0
2014-Dec-20 00:33N 33°46' W 118°13'0 0.0
2014-Dec-19 23:33N 33°46' W 118°13'0 0.0
2014-Dec-19 22:33N 33°46' W 118°13'0 0.0
2014-Dec-19 21:33N 33°46' W 118°13'0 0.0
2014-Dec-19 20:33N 33°46' W 118°13'0 0.0
2014-Dec-19 19:33N 33°46' W 118°13'0 0.0
2014-Dec-19 18:33N 33°46' W 118°13'0 0.0
2014-Dec-19 17:33N 33°46' W 118°13'0 0.0
2014-Dec-19 16:33N 33°46' W 118°13'0 0.0
2014-Dec-19 15:33N 33°46' W 118°13'0 0.0
2014-Dec-19 14:34N 33°46' W 118°13'0 0.0
2014-Dec-19 13:33N 33°46' W 118°13'0 0.0
2014-Dec-19 12:33N 33°46' W 118°13'0 0.0
2014-Dec-19 11:33N 33°46' W 118°13'0 0.0
2014-Dec-19 10:33N 33°46' W 118°13'0 0.0
2014-Dec-19 09:33N 33°46' W 118°13'0 0.0
2014-Dec-19 08:33N 33°46' W 118°13'0 0.0
2014-Dec-19 07:33N 33°46' W 118°13'0 0.0
2014-Dec-19 06:33N 33°46' W 118°13'0 0.0
2014-Dec-19 05:33N 33°46' W 118°13'0 0.0
2014-Dec-19 04:33N 33°46' W 118°13'0 0.0
2014-Dec-19 03:33N 33°46' W 118°13'144 7.9
2014-Dec-18 09:24N 34°48' W 120°51'8 9.2
2014-Dec-18 08:33N 34°54' W 120°56'9 9.1
2014-Dec-18 07:33N 35°03' W 121°01'9 9.1
2014-Dec-18 06:33N 35°11' W 121°05'169 8.9
2014-Dec-17 11:33N 37°36' W 122°54'9 9.0
2014-Dec-17 10:33N 37°45' W 122°57'10 9.6
2014-Dec-17 09:33N 37°53' W 123°03'9 8.8
2014-Dec-17 08:33N 38°01' W 123°07'9 8.9
2014-Dec-17 07:33N 38°09' W 123°13'9 9.4
2014-Dec-17 06:33N 38°17' W 123°19'9 9.2
2014-Dec-17 05:33N 38°25' W 123°25'10 9.7
2014-Dec-17 04:33N 38°33' W 123°31'9 9.3
2014-Dec-17 03:33N 38°41' W 123°36'  
2014-Dec-14 20:26N 45°41' W 124°02'8 8.9
2014-Dec-14 19:33N 45°49' W 124°02'8 8.1
2014-Dec-14 18:33N 45°57' W 124°04'8 8.2
2014-Dec-14 17:33N 46°04' W 124°09'9 8.8
2014-Dec-14 16:33N 46°13' W 124°13'8 8.4
2014-Dec-14 15:33N 46°21' W 124°14'9 8.7
2014-Dec-14 14:33N 46°30' W 124°15'8 8.4
2014-Dec-14 13:33N 46°38' W 124°17'9 8.7
2014-Dec-14 12:33N 46°47' W 124°17'8 8.3
2014-Dec-14 11:33N 46°55' W 124°18'8 7.9
2014-Dec-14 10:33N 47°03' W 124°20'71 8.4
2014-Dec-14 02:10N 48°11' W 124°50'5 8.7
2014-Dec-14 01:32N 48°16' W 124°49'9 9.1
2014-Dec-14 00:33N 48°25' W 124°45'10 9.7
2014-Dec-13 23:33N 48°27' W 124°31'1010.1
2014-Dec-13 22:33N 48°23' W 124°17'1111.2
2014-Dec-13 21:33N 48°19' W 124°02'1110.6
2014-Dec-13 20:33N 48°16' W 123°46'1010.0
2014-Dec-13 19:33N 48°15' W 123°31'10 9.5
2014-Dec-13 18:32N 48°14' W 123°17'9 8.7
2014-Dec-13 17:33N 48°13' W 123°04'8 7.6
2014-Dec-13 16:31N 48°12' W 122°53'13 6.6
2014-Dec-13 14:33N 48°03' W 122°38'8 7.7
2014-Dec-13 13:33N 47°57' W 122°32'9 9.0
2014-Dec-13 12:33N 47°49' W 122°27'9 7.8
2014-Dec-13 11:26N 47°40' W 122°24'0 0.3
2014-Dec-13 10:33N 47°40' W 122°23'0 0.0
2014-Dec-13 09:33N 47°40' W 122°23'0 0.0
2014-Dec-13 08:33N 47°40' W 122°23'0 0.0
2014-Dec-13 07:33N 47°40' W 122°23'0 0.0
2014-Dec-13 06:33N 47°40' W 122°23'0 0.0
2014-Dec-13 05:33N 47°40' W 122°23'0 0.0
2014-Dec-13 04:33N 47°40' W 122°23'0 0.0
2014-Dec-13 03:33N 47°40' W 122°23'0 0.0
2014-Dec-13 02:33N 47°40' W 122°23'0 0.0
2014-Dec-13 01:33N 47°40' W 122°23'0 0.0
2014-Dec-13 00:33N 47°40' W 122°23'0 0.0
2014-Dec-12 23:33N 47°40' W 122°23'0 0.0
2014-Dec-12 22:33N 47°40' W 122°23'0 0.0
2014-Dec-12 21:33N 47°40' W 122°23'0 0.0
2014-Dec-12 20:34N 47°40' W 122°23'0 0.0
2014-Dec-12 19:33N 47°40' W 122°23'0 0.0
2014-Dec-12 18:33N 47°40' W 122°23'1 0.6
2014-Dec-12 17:33N 47°40' W 122°23'0 0.0
2014-Dec-12 16:33N 47°40' W 122°23'0 0.0
2014-Dec-12 15:33N 47°40' W 122°23'0 0.0
2014-Dec-12 14:33N 47°40' W 122°23'0 0.0
2014-Dec-12 13:33N 47°40' W 122°23'0 0.0
2014-Dec-12 12:33N 47°40' W 122°23'  

Dump ship's entire track history